Details From MMCB - General Mariano Matamoros
To KTOA - Torrance/ Zamperini Fld
Flight Number -
Tags Decoded
Created
Modified
Stats Distance 1,362 nm / 2,522 km
Max Altitude 0 ft / 0 m
Waypoints 3
Social Downloads 0
Likes 0
Share VATSIM

Download

Looking for another format? Having issues loading an existing format? Contact us
Advertisement - Login to hide

Notes

Decoded

Route

MMCB JILAN KTOA

ID Type Via Altitude Latitude Longitude Leg Dist Tot Dist Heading (true) Name
O MMCB APT - 0 ft / 0 m 18.82365˚ -99.26838˚ - 0 nm - -
JILAN FIX - 0 ft / 0 m 33.73608˚ -118.05264˚ 1346 nm 1346 nm 315° / 307° -
O KTOA APT - 0 ft / 0 m 33.80532˚ -118.34421˚ 15 nm 1361 nm 286° / 286° -

Altitude Profile

Advertisement - Login to hide

Weather


0- 5 10 15 20 25 30 35+ Temperature / ° C

Clouds and Precipitation
Forecast for 2017-12-13 00:00 UTC. Updated an hour ago

Ground ~20,000 ft ~40,000 ft Winds

MMCB

Details ICAO MMCB (CVJ)
Name GENERAL MARIANO MATAMOROS
Region Mexico
Timezone America/Mexico_City (UTC-6.0)
Stats Elevation 4,277 ft / 1,304 m (AMSL)
Location 18.834764° -99.261300°
Runways 1
Magnetic Variation 4.749° E

METAR

MMCB 122054Z 20005KT 7SM SKC 24/00 A3011 RMK HZY

Decode

TAF

Not found

Departure Runways

ID Width Length Bearing (true) Bearing (mag) Surface Threshold Offset Overrun Length
02 148 ft / 45 m 9,470 ft / 2,886 m 31.07° 26.32° Asphalt 0 ft / 0 m 195 ft / 59 m
20 148 ft / 45 m 9,470 ft / 2,886 m 211.07° 206.32° Asphalt 260 ft / 79 m 0 ft / 0 m

KTOA

Details ICAO KTOA (TOA)
Name Torrance/Zamperini Field
Region United States
Timezone America/Los_Angeles (UTC-8.0)
Stats Elevation 103 ft / 31 m (AMSL)
Location 33.803279° -118.339807°
Runways 2
Magnetic Variation 11.966° E

METAR

KTOA 122152Z 28009KT 10SM SKC 24/M01 A3005

Decode

TAF

Not found

Destination Runways

ID Width Length Bearing (true) Bearing (mag) Surface Threshold Offset Overrun Length
11L 151 ft / 46 m 5,025 ft / 1,532 m 128.59° 116.62° Asphalt 541 ft / 165 m 0 ft / 0 m
11R 75 ft / 23 m 3,013 ft / 918 m 128.60° 116.63° Asphalt 0 ft / 0 m 26 ft / 8 m
29L 75 ft / 23 m 3,013 ft / 918 m 308.61° 296.64° Asphalt 0 ft / 0 m 26 ft / 8 m
29R 151 ft / 46 m 5,025 ft / 1,532 m 308.59° 296.62° Asphalt 541 ft / 165 m 0 ft / 0 m

Approach Navaids

Runway Type Ident Frequency Range Bearing (true) Bearing (mag) Slope Elevation
29R Localiser ITOA 111.90 MHz 18 nm / 33 km 308.61° 296.65° - 78 ft / 24 m (AMSL)
29R Glidescope ITOA 111.90 MHz 10 nm / 19 km 308.59° 296.63° 3.40° 96 ft / 29 m (AMSL)
29R DME ITOA 111.90 MHz 18 nm / 33 km - - - 96 ft / 29 m (AMSL)